Terminal Aerodrome Forecast
Issued by NWS

Home | Current Version | Previous Version | Text Only | Print | Product List | Glossary On
Versions: 1 2 3 4 5 6 7 8 9 10 11 12 13 14 15 16 17 18 19
260
FTUS41 KPBZ 260555 CCA
TAFDUJ
TAF COR
KDUJ 260555Z 2606/2706 26005KT 6SM -SHRA OVC005
      TEMPO 2606/2609 P6SM SCT008 OVC013
     FM261200 27009KT P6SM VCSH OVC008
     FM261600 27011KT P6SM OVC010
     FM261900 28012KT P6SM OVC020
     FM262300 28008KT P6SM BKN025=

USA.gov is the U.S. government's official web portal to all federal, state and local government web resources and services.